AirNav   Air Wisconsin pilot careers
 
 1542 users online  

NV21 Sky Ranch Heliport
Sandy Valley, Nevada, USA

GOING TO SANDY VALLEY?


FAA INFORMATION EFFECTIVE 29 MARCH 2018

Location

FAA Identifier: NV21
Lat/Long: 35-47-00.0300N / 115-37-33.2800W
35-47.000500N / 115-37.554667W
35.7833417 / -115.6259111
(estimated)
Elevation: 2599 ft. / 792 m (estimated)
Variation: 14E (1985)
From city: 30 miles SW of SANDY VALLEY, NV
Time zone: UTC -7 (UTC -8 during Standard Time)
Zip code: 89019

Heliport Operations

Heliport use: Private use. Permission required prior to landing
Activation date: 07/1991
Control tower: no
ARTCC: LOS ANGELES CENTER
FSS: RENO FLIGHT SERVICE STATION
Attendance: UNATNDD
Segmented circle: no

Nearby radio navigation aids

VOR radial/distance  VOR name  Freq  Var
LASr217/28.8LAS VEGAS VORTAC116.9015E
BLDr236/39.2BOULDER CITY VORTAC116.7015E

Heliport Services

Runway Information

Helipad H1

Dimensions: 54 x 54 ft. / 16 x 16 m
Surface: concrete
Latitude: 35-47.000500N
Longitude: 115-37.554667W
Elevation: 2599.0 ft.
Traffic pattern: leftleft

Heliport Ownership and Management from official FAA records

Ownership: Privately-owned
Owner: MEL AND MARILYN LARSON
13000 S. LAS VEGAS BLVD.
LAS VEGAS, NV 89044
Phone 702-361-0013
702-361-3001
Manager: MEL AND MARILYN LARSON
13000 S. LAS VEGAS BLVD.
LAS VEGAS, NV 89044
Phone 702-361-0013
702-361-3001

Instrument Procedures

There are no published instrument procedures at NV21.

Some nearby airports with instrument procedures:

KHND - Henderson Executive Airport (26 nm NE)
KLAS - Mc Carran International Airport (29 nm NE)
KVGT - North Las Vegas Airport (33 nm NE)
KBVU - Boulder City Municipal Airport (38 nm E)
KLSV - Nellis Air Force Base (40 nm NE)
 
Loc | Ops | Rwys | IFR | FBO | Links
Com | Nav | Svcs | Stats | Notes

AirNav Hotels Sweepstakes
 
Area around NV21 (Sky Ranch Heliport)
 
Road maps at: MapQuest Bing Google
 
Aerial photo
No photo
 
Sectional chart

 
Airport distance calculator
Flying to Sky Ranch Heliport? Find the distance to fly.

From to NV21

Sunrise and sunset
Times for 20-Apr-2018
 Local
(UTC-7)
 Zulu
(UTC)
Morning civil twilight05:3712:37
Sunrise06:0413:04
Sunset19:1902:19
Evening civil twilight19:4502:45

Current date and time
Zulu (UTC)  20-Apr-2018 16:25:39
Local (UTC-7)  20-Apr-2018 09:25:39
 
METAR
KHND 
27nm NE 
201556Z 00000KT 10SM CLR 17/01 A2999 RMK AO2 SLP147 P0004 T01670006 $
KLAS 
29nm NE 
201556Z 27013G19KT 10SM FEW100 18/01 A2996 RMK AO2 SLP135 T01780011
KVGT 
32nm NE 
201553Z 33024G29KT 10SM CLR 17/00 A2994 RMK AO2 PK WND 32031/1542 SLP147 T01720000
KBVU 
38nm E 
201555Z AUTO 30007KT 10SM CLR 17/M00 A2997 RMK AO2
KLSV 
39nm NE 
201558Z AUTO 27024G37KT 10SM CLR 18/00 A2993 RMK AO2 PK WND 27037/51 SLP126 T01780000
KINS 
48nm N 
201558Z AUTO 27016KT 10SM CLR 14/M01 A3000 RMK AO2 SLP137 T01441013 $
TAF
KHND 
27nm NE 
201120Z 2012/2112 27006KT P6SM BKN100 FM201600 34014G22KT P6SM FEW100 FM210000 01010KT P6SM FEW100 FM210400 19008KT P6SM SKC
KLAS 
29nm NE 
201423Z 2014/2118 23007KT P6SM FEW100 SCT150 FM201600 34012G20KT P6SM FEW100 FM202100 36010KT P6SM FEW100 FM210000 04007KT P6SM FEW100 FM210500 22008KT P6SM SKC
KVGT 
32nm NE 
201120Z 2012/2112 34014G24KT P6SM BKN100 FM201500 34018G26KT P6SM FEW100 FM210200 34008KT P6SM SKC
NOTAMs
Click for the latest NOTAMs
NOTAMs are issued by the DoD/FAA and will open in a separate window not controlled by AirNav.

 

 
 

Would you like to see your business listed on this page?

 If your business provides an interesting product or service to pilots, flight crews, aircraft, or users of the Sky Ranch Heliport, you should consider listing it here.  To start the listing process, click on the button below
 
Add a business
 

Other Pages about Sky Ranch Heliport

Update a link
 
Copyright © AirNav, LLC. All rights reserved. Privacy Policy  Contact